createdAt,value
2023-08-07T00:00:01.913Z,14.50
2023-08-07T00:03:29.194Z,14.50
2023-08-07T00:06:54.175Z,14.40
2023-08-07T00:10:17.762Z,14.50
2023-08-07T00:13:41.668Z,14.50
2023-08-07T00:17:06.744Z,14.50
2023-08-07T00:20:30.351Z,14.50
2023-08-07T00:23:55.900Z,14.50
2023-08-07T00:27:19.619Z,14.50
2023-08-07T00:30:43.226Z,14.60
2023-08-07T00:34:06.787Z,14.60
2023-08-07T00:37:30.421Z,14.60
2023-08-07T00:40:55.362Z,14.60
2023-08-07T00:44:19.258Z,14.60
2023-08-07T00:47:43.345Z,14.60
2023-08-07T00:51:08.927Z,14.50
2023-08-07T00:54:33.837Z,14.50
2023-08-07T00:58:00.127Z,14.50
2023-08-07T01:01:23.907Z,14.50
2023-08-07T01:04:48.514Z,14.60
2023-08-07T01:08:13.026Z,14.50
2023-08-07T01:11:44.959Z,14.50
2023-08-07T01:15:15.929Z,14.50
2023-08-07T01:18:40.562Z,14.50
2023-08-07T01:22:09.705Z,14.50
2023-08-07T01:25:37.930Z,14.50
2023-08-07T01:29:08.524Z,14.50
2023-08-07T01:32:39.638Z,14.50
2023-08-07T01:36:07.780Z,14.60
2023-08-07T01:39:33.240Z,14.60
2023-08-07T01:42:57.569Z,14.50
2023-08-07T01:46:21.235Z,14.50
2023-08-07T01:49:45.080Z,14.60
2023-08-07T01:53:08.744Z,14.60
2023-08-07T01:56:33.659Z,14.50
2023-08-07T01:59:57.236Z,14.50
2023-08-07T02:03:22.305Z,14.50
2023-08-07T02:06:46.164Z,14.50
2023-08-07T02:10:10.578Z,14.50
2023-08-07T02:13:35.894Z,14.40
2023-08-07T02:16:59.535Z,14.40
2023-08-07T02:20:23.263Z,14.40
2023-08-07T02:23:47.026Z,14.30
2023-08-07T02:27:10.666Z,14.40
2023-08-07T02:30:35.971Z,14.40
2023-08-07T02:33:59.549Z,14.30
2023-08-07T02:37:23.188Z,14.40
2023-08-07T02:40:46.794Z,14.40
2023-08-07T02:44:10.349Z,14.40
2023-08-07T02:47:35.302Z,14.40
2023-08-07T02:50:58.955Z,14.40
2023-08-07T02:54:22.657Z,14.40
2023-08-07T02:57:46.298Z,14.50
2023-08-07T03:01:10.472Z,14.50
2023-08-07T03:04:35.548Z,14.50
2023-08-07T03:07:59.097Z,14.60
2023-08-07T03:11:22.649Z,14.60
2023-08-07T03:14:46.299Z,14.70
2023-08-07T03:18:09.874Z,14.70
2023-08-07T03:21:35.103Z,14.60
2023-08-07T03:24:58.823Z,14.70
2023-08-07T03:28:22.743Z,14.60
2023-08-07T03:31:46.557Z,14.60
2023-08-07T03:35:10.807Z,14.60
2023-08-07T03:38:35.818Z,14.60
2023-08-07T03:41:59.567Z,14.60
2023-08-07T03:45:23.528Z,14.60
2023-08-07T03:48:47.192Z,14.60
2023-08-07T03:52:12.256Z,14.60
2023-08-07T03:55:38.121Z,14.60
2023-08-07T03:59:01.737Z,14.60
2023-08-07T04:02:26.422Z,14.50
2023-08-07T04:05:54.376Z,14.50
2023-08-07T04:09:19.622Z,14.60
2023-08-07T04:12:44.652Z,14.60
2023-08-07T04:16:08.376Z,14.60
2023-08-07T04:19:32.040Z,14.70
2023-08-07T04:22:55.655Z,14.70
2023-08-07T04:26:20.070Z,14.70
2023-08-07T04:29:45.911Z,14.70
2023-08-07T04:33:09.829Z,14.70
2023-08-07T04:36:34.503Z,14.70
2023-08-07T04:39:58.083Z,14.70
2023-08-07T04:43:21.982Z,14.80
2023-08-07T04:46:46.952Z,14.70
2023-08-07T04:50:11.506Z,14.80
2023-08-07T04:53:35.136Z,14.80
2023-08-07T04:56:58.728Z,14.80
2023-08-07T05:00:23.314Z,14.90
2023-08-07T05:03:48.339Z,14.90
2023-08-07T05:07:12.013Z,14.80
2023-08-07T05:10:35.825Z,14.90
2023-08-07T05:14:00.519Z,14.90
2023-08-07T05:17:24.248Z,15.00
2023-08-07T05:20:49.439Z,14.90
2023-08-07T05:24:13.897Z,14.90
2023-08-07T05:27:37.530Z,15.00
2023-08-07T05:31:01.444Z,15.00
2023-08-07T05:34:25.168Z,15.00
2023-08-07T05:37:50.103Z,15.10
2023-08-07T05:41:13.834Z,15.20
2023-08-07T05:44:37.730Z,15.20
2023-08-07T05:48:01.387Z,15.20
2023-08-07T05:51:25.133Z,15.20
2023-08-07T05:54:50.187Z,15.20
2023-08-07T05:58:13.734Z,15.20
2023-08-07T06:01:38.033Z,15.10
2023-08-07T06:05:01.901Z,15.20
2023-08-07T06:08:25.601Z,15.30
2023-08-07T06:11:50.673Z,15.30
2023-08-07T06:15:14.584Z,15.40
2023-08-07T06:18:38.952Z,15.50
2023-08-07T06:22:02.758Z,15.50
2023-08-07T06:25:26.365Z,15.50
2023-08-07T06:28:51.315Z,15.50
2023-08-07T06:32:14.977Z,15.60
2023-08-07T06:35:40.581Z,15.80
2023-08-07T06:39:05.071Z,16.20
2023-08-07T06:42:28.632Z,16.10
2023-08-07T06:45:54.176Z,16.10
2023-08-07T06:49:17.791Z,16.10
2023-08-07T06:52:41.467Z,16.00
2023-08-07T06:56:05.184Z,15.90
2023-08-07T06:59:28.780Z,16.00
2023-08-07T07:02:54.050Z,15.80
2023-08-07T07:06:17.641Z,15.60
2023-08-07T07:09:41.238Z,15.60
2023-08-07T07:13:05.179Z,15.60
2023-08-07T07:16:31.136Z,15.70
2023-08-07T07:19:57.893Z,15.90
2023-08-07T07:23:21.967Z,16.10
2023-08-07T07:26:45.616Z,16.90
2023-08-07T07:30:10.160Z,17.10
2023-08-07T07:33:33.785Z,16.60
2023-08-07T07:36:58.749Z,16.50
2023-08-07T07:40:22.384Z,16.60
2023-08-07T07:43:46.081Z,16.80
2023-08-07T07:47:13.621Z,17.30
2023-08-07T07:50:37.714Z,17.40
2023-08-07T07:54:14.589Z,17.40
2023-08-07T07:57:38.839Z,17.10
2023-08-07T08:01:02.457Z,16.90
2023-08-07T08:04:26.076Z,16.80
2023-08-07T08:07:49.864Z,16.60
2023-08-07T08:11:15.728Z,16.40
2023-08-07T08:14:50.937Z,16.00
2023-08-07T08:18:19.633Z,15.90
2023-08-07T08:21:44.286Z,16.40
2023-08-07T08:25:08.946Z,17.80
2023-08-07T08:28:34.193Z,18.30
2023-08-07T08:31:57.805Z,17.90
2023-08-07T08:35:21.629Z,17.90
2023-08-07T08:38:46.517Z,19.30
2023-08-07T08:42:13.821Z,21.10
2023-08-07T08:45:39.849Z,21.30
2023-08-07T08:49:06.010Z,21.00
2023-08-07T08:52:32.826Z,21.60
2023-08-07T08:55:56.635Z,22.90
2023-08-07T08:59:20.386Z,22.70
2023-08-07T09:02:46.087Z,21.60
2023-08-07T09:06:10.662Z,20.60
2023-08-07T09:09:34.378Z,19.80
2023-08-07T09:13:04.604Z,19.60
2023-08-07T09:16:29.499Z,20.10
2023-08-07T09:19:55.395Z,21.10
2023-08-07T09:23:19.028Z,22.70
2023-08-07T09:26:45.629Z,24.30
2023-08-07T09:30:10.862Z,24.80
2023-08-07T09:33:34.594Z,24.60
2023-08-07T09:36:59.529Z,23.60
2023-08-07T09:40:23.634Z,23.50
2023-08-07T09:43:47.339Z,22.40
2023-08-07T09:47:15.736Z,21.50
2023-08-07T09:50:39.389Z,20.40
2023-08-07T09:54:04.373Z,20.40
2023-08-07T09:57:28.117Z,21.60
2023-08-07T10:00:54.144Z,23.40
2023-08-07T10:04:17.999Z,24.10
2023-08-07T10:07:42.783Z,24.30
2023-08-07T10:11:08.746Z,24.80
2023-08-07T10:14:32.788Z,25.90
2023-08-07T10:17:56.834Z,24.50
2023-08-07T10:21:21.374Z,22.80
2023-08-07T10:24:45.949Z,21.40
2023-08-07T10:28:14.267Z,20.60
2023-08-07T10:31:39.748Z,20.00
2023-08-07T10:35:06.234Z,19.80
2023-08-07T10:38:29.892Z,19.40
2023-08-07T10:41:56.024Z,18.30
2023-08-07T10:45:23.436Z,18.20
2023-08-07T10:48:48.624Z,19.30
2023-08-07T10:52:14.312Z,19.60
2023-08-07T10:55:47.105Z,19.80
2023-08-07T10:59:12.114Z,20.20
2023-08-07T11:02:40.698Z,20.70
2023-08-07T11:06:04.454Z,21.20
2023-08-07T11:09:29.397Z,21.60
2023-08-07T11:12:53.061Z,21.50
2023-08-07T11:16:17.063Z,21.40
2023-08-07T11:19:42.086Z,20.60
2023-08-07T11:23:07.292Z,18.70
2023-08-07T11:26:31.068Z,17.40
2023-08-07T11:29:54.737Z,16.70
2023-08-07T11:33:19.897Z,16.40
2023-08-07T11:36:45.743Z,16.60
2023-08-07T11:40:10.923Z,17.00
2023-08-07T11:43:35.903Z,17.40
2023-08-07T11:46:59.603Z,18.00
2023-08-07T11:50:23.613Z,18.40
2023-08-07T11:53:48.737Z,18.50
2023-08-07T11:57:18.608Z,18.60
2023-08-07T12:00:45.367Z,19.00
2023-08-07T12:04:12.635Z,19.20
2023-08-07T12:07:36.261Z,19.20
2023-08-07T12:11:04.035Z,19.20
2023-08-07T12:14:31.415Z,19.10
2023-08-07T12:18:03.230Z,19.10
2023-08-07T12:21:28.638Z,18.90
2023-08-07T12:24:52.244Z,19.10
2023-08-07T12:28:17.760Z,19.20
2023-08-07T12:31:41.951Z,19.20
2023-08-07T12:38:35.993Z,19.40
2023-08-07T12:48:54.304Z,19.10
2023-08-07T12:52:18.103Z,19.20
2023-08-07T12:55:41.726Z,19.40
2023-08-07T12:59:05.336Z,19.50
2023-08-07T13:02:30.357Z,19.70
2023-08-07T13:05:54.038Z,20.10
2023-08-07T13:09:17.696Z,20.20
2023-08-07T13:12:43.072Z,19.80
2023-08-07T13:16:06.649Z,19.50
2023-08-07T13:19:31.604Z,19.60
2023-08-07T13:22:55.228Z,19.80
2023-08-07T13:26:18.901Z,20.10
2023-08-07T13:29:42.560Z,19.90
2023-08-07T13:33:06.399Z,19.80
2023-08-07T13:36:31.309Z,19.60
2023-08-07T13:39:55.430Z,19.20
2023-08-07T13:43:19.034Z,18.90
2023-08-07T13:46:42.773Z,19.00
2023-08-07T13:50:08.187Z,19.10
2023-08-07T13:53:33.308Z,19.20
2023-08-07T13:56:56.978Z,19.10
2023-08-07T14:00:20.700Z,18.80
2023-08-07T14:03:44.434Z,18.80
2023-08-07T14:07:08.333Z,19.00
2023-08-07T14:10:33.301Z,19.30
2023-08-07T14:13:57.324Z,19.40
2023-08-07T14:17:21.004Z,19.40
2023-08-07T14:21:00.275Z,19.40
2023-08-07T14:24:24.360Z,19.30
2023-08-07T14:27:49.586Z,18.90
2023-08-07T14:31:13.439Z,18.90
2023-08-07T14:34:37.004Z,18.90
2023-08-07T14:38:00.603Z,19.10
2023-08-07T14:41:24.211Z,19.10
2023-08-07T14:44:49.472Z,19.00
2023-08-07T14:48:13.240Z,19.00
2023-08-07T14:51:36.829Z,19.00
2023-08-07T14:55:00.562Z,19.00
2023-08-07T14:58:24.358Z,19.00
2023-08-07T15:01:49.486Z,19.10
2023-08-07T15:05:13.081Z,18.90
2023-08-07T15:08:36.701Z,19.00
2023-08-07T15:12:00.698Z,19.10
2023-08-07T15:15:24.821Z,19.10
2023-08-07T15:18:50.124Z,19.10
2023-08-07T15:22:13.810Z,19.20
2023-08-07T15:25:39.748Z,19.20
2023-08-07T15:29:32.627Z,19.20
2023-08-07T15:32:58.241Z,19.20
2023-08-07T15:36:23.277Z,18.90
2023-08-07T15:39:46.835Z,18.70
2023-08-07T15:43:11.140Z,18.50
2023-08-07T15:46:34.789Z,18.30
2023-08-07T15:49:58.563Z,17.90
2023-08-07T15:53:23.547Z,17.60
2023-08-07T15:56:47.132Z,17.10
2023-08-07T16:00:11.921Z,16.80
2023-08-07T16:03:38.753Z,16.80
2023-08-07T16:07:02.350Z,16.80
2023-08-07T16:10:27.539Z,16.70
2023-08-07T16:13:53.404Z,16.50
2023-08-07T16:17:17.423Z,16.10
2023-08-07T16:20:40.991Z,15.90
2023-08-07T16:24:05.603Z,15.90
2023-08-07T16:27:30.591Z,15.80
2023-08-07T16:30:54.337Z,15.80
2023-08-07T16:34:17.994Z,16.00
2023-08-07T16:37:41.650Z,16.00
2023-08-07T16:41:05.219Z,16.20
2023-08-07T16:44:30.264Z,16.30
2023-08-07T16:47:53.883Z,16.30
2023-08-07T16:51:19.584Z,16.40
2023-08-07T16:54:43.121Z,16.50
2023-08-07T16:58:06.686Z,16.50
2023-08-07T17:01:31.708Z,16.50
2023-08-07T17:04:55.336Z,16.30
2023-08-07T17:08:18.921Z,16.20
2023-08-07T17:11:42.526Z,16.30
2023-08-07T17:15:07.231Z,16.40
2023-08-07T17:18:32.107Z,16.50
2023-08-07T17:21:55.671Z,16.60
2023-08-07T17:25:19.307Z,16.50
2023-08-07T17:28:42.875Z,16.40
2023-08-07T17:32:07.703Z,16.50
2023-08-07T17:35:32.807Z,16.50
2023-08-07T17:38:56.514Z,16.40
2023-08-07T17:42:20.082Z,16.40
2023-08-07T17:45:43.676Z,16.30
2023-08-07T17:49:07.330Z,16.40
2023-08-07T17:52:32.774Z,16.30
2023-08-07T17:55:56.597Z,16.30
2023-08-07T17:59:20.268Z,16.20
2023-08-07T18:02:44.257Z,16.20
2023-08-07T18:06:07.880Z,16.30
2023-08-07T18:09:32.778Z,16.10
2023-08-07T18:12:56.432Z,16.10
2023-08-07T18:16:20.193Z,16.10
2023-08-07T18:19:43.773Z,16.10
2023-08-07T18:23:07.410Z,16.00
2023-08-07T18:26:32.400Z,15.90
2023-08-07T18:29:56.071Z,15.90
2023-08-07T18:33:20.060Z,15.80
2023-08-07T18:36:45.146Z,15.70
2023-08-07T18:40:10.747Z,15.70
2023-08-07T18:43:36.445Z,15.60
2023-08-07T18:47:00.501Z,15.60
2023-08-07T18:50:25.115Z,15.50
2023-08-07T18:53:49.063Z,15.50
2023-08-07T18:57:13.656Z,15.50
2023-08-07T19:00:39.404Z,15.40
2023-08-07T19:04:03.277Z,15.40
2023-08-07T19:07:29.372Z,15.30
2023-08-07T19:10:53.093Z,15.30
2023-08-07T19:14:17.088Z,15.20
2023-08-07T19:17:42.507Z,15.20
2023-08-07T19:21:07.233Z,15.10
2023-08-07T19:24:31.182Z,15.10
2023-08-07T19:27:55.119Z,15.00
2023-08-07T19:31:19.206Z,15.00
2023-08-07T19:34:44.673Z,14.90
2023-08-07T19:38:09.163Z,14.90
2023-08-07T19:41:33.589Z,14.80
2023-08-07T19:44:58.143Z,14.80
2023-08-07T19:48:22.149Z,14.70
2023-08-07T19:51:47.520Z,14.70
2023-08-07T19:55:14.075Z,14.70
2023-08-07T19:58:38.163Z,14.50
2023-08-07T20:02:02.170Z,14.40
2023-08-07T20:05:26.272Z,14.40
2023-08-07T20:08:51.600Z,14.30
2023-08-07T20:12:17.456Z,14.20
2023-08-07T20:15:41.164Z,14.20
2023-08-07T20:19:05.231Z,14.10
2023-08-07T20:22:29.167Z,14.10
2023-08-07T20:25:54.633Z,14.00
2023-08-07T20:29:19.156Z,14.00
2023-08-07T20:32:45.389Z,13.90
2023-08-07T20:36:09.029Z,13.90
2023-08-07T20:39:33.228Z,13.80
2023-08-07T20:43:01.106Z,13.80
2023-08-07T20:46:25.478Z,13.80
2023-08-07T20:49:51.022Z,13.80
2023-08-07T20:53:15.168Z,13.70
2023-08-07T20:56:39.252Z,13.60
2023-08-07T21:00:09.757Z,13.60
2023-08-07T21:03:44.856Z,13.60
2023-08-07T21:07:08.509Z,13.60
2023-08-07T21:10:32.141Z,13.60
2023-08-07T21:13:56.002Z,13.50
2023-08-07T21:17:20.932Z,13.50
2023-08-07T21:20:44.493Z,13.40
2023-08-07T21:24:12.427Z,13.40
2023-08-07T21:27:36.854Z,13.40
2023-08-07T21:31:00.558Z,13.30
2023-08-07T21:34:25.647Z,13.20
2023-08-07T21:37:49.195Z,13.20
2023-08-07T21:41:12.863Z,13.20
2023-08-07T21:44:36.441Z,13.10
2023-08-07T21:48:00.059Z,13.10
2023-08-07T21:51:25.651Z,13.10
2023-08-07T21:54:49.209Z,13.10
2023-08-07T21:58:12.821Z,13.10
2023-08-07T22:01:37.355Z,13.10
2023-08-07T22:05:01.019Z,13.10
2023-08-07T22:08:26.004Z,13.00
2023-08-07T22:11:49.677Z,13.00
2023-08-07T22:15:15.182Z,13.00
2023-08-07T22:18:38.883Z,13.00
2023-08-07T22:22:04.269Z,12.90
2023-08-07T22:25:32.033Z,12.90
2023-08-07T22:28:56.306Z,12.90
2023-08-07T22:32:23.049Z,12.90
2023-08-07T22:35:53.543Z,12.90
2023-08-07T22:39:25.734Z,12.90
2023-08-07T22:42:51.802Z,12.80
2023-08-07T22:46:15.402Z,12.80
2023-08-07T22:49:39.296Z,12.80
2023-08-07T22:53:03.354Z,12.80
2023-08-07T22:56:27.573Z,12.80
2023-08-07T22:59:53.166Z,12.80
2023-08-07T23:03:16.933Z,12.70
2023-08-07T23:06:41.360Z,12.70
2023-08-07T23:10:05.801Z,12.70
2023-08-07T23:13:30.427Z,12.70
2023-08-07T23:16:56.019Z,12.60
2023-08-07T23:20:20.549Z,12.70
2023-08-07T23:23:44.501Z,12.70
2023-08-07T23:27:11.748Z,12.70
2023-08-07T23:30:35.329Z,12.70
2023-08-07T23:34:00.759Z,12.60
2023-08-07T23:37:24.490Z,12.70
2023-08-07T23:40:50.520Z,12.70
2023-08-07T23:44:14.098Z,12.70
2023-08-07T23:47:40.621Z,12.60
2023-08-07T23:51:05.796Z,12.70
2023-08-07T23:54:29.450Z,12.70
2023-08-07T23:57:53.375Z,12.60
